Time;durP1;ratioP1;P1;durP2;ratioP2;P2;SDS_P1;SDS_P2;PMS_P1;PMS_P2;Temp;Humidity;BMP_temperature;BMP_pressure;BME280_temperature;BME280_humidity;BME280_pressure;Samples;Min_cycle;Max_cycle;Signal;HPM_P1;HPM_P2
2023/08/09 00:01:36;;;;;;;6.70;1.10;;;;;;;-143.84;74.43;45083.34;5092454;28;20516;-55
2023/08/09 00:04:04;;;;;;;1.47;1.37;;;;;;;-143.84;74.55;45100.47;5092269;28;20552;-55
2023/08/09 00:06:31;;;;;;;2.80;1.27;;;;;;;-143.84;74.49;45075.72;5092272;28;20444;-56
2023/08/09 00:08:58;;;;;;;1.47;1.37;;;;;;;-143.84;74.80;45073.81;5092339;28;20432;-55
2023/08/09 00:11:26;;;;;;;2.03;1.57;;;;;;;-143.84;75.30;45079.53;5092191;28;20509;-55
2023/08/09 00:13:53;;;;;;;1.70;1.60;;;;;;;-143.84;75.26;45113.81;5092015;28;20487;-55
2023/08/09 00:16:20;;;;;;;1.80;1.70;;;;;;;-143.84;75.66;45087.16;5092281;28;20443;-56
2023/08/09 00:18:49;;;;;;;1.87;1.77;;;;;;;-143.84;76.26;45094.78;5090637;28;20444;-56
2023/08/09 00:21:16;;;;;;;1.63;1.30;;;;;;;-143.84;76.72;45090.97;5091802;28;20440;-55
2023/08/09 00:23:43;;;;;;;1.50;1.40;;;;;;;-143.84;77.12;45106.19;5091694;28;20497;-55
2023/08/09 00:26:10;;;;;;;1.90;1.80;;;;;;;-143.84;77.54;45073.81;5091606;28;20439;-55
2023/08/09 00:28:37;;;;;;;1.70;1.60;;;;;;;-143.84;78.20;45098.56;5092077;28;20938;-55
2023/08/09 00:31:05;;;;;;;1.70;1.60;;;;;;;-143.84;78.39;45110.00;5091979;28;20873;-55
2023/08/09 00:33:32;;;;;;;3.47;1.93;;;;;;;-143.84;78.48;45123.34;5091114;28;20479;-55
2023/08/09 00:36:01;;;;;;;2.70;1.60;;;;;;;-143.84;78.55;45119.53;5091655;28;21057;-55
2023/08/09 00:38:28;;;;;;;1.83;1.73;;;;;;;-143.84;78.33;45094.78;5091343;28;21150;-55
2023/08/09 00:40:55;;;;;;;4.70;1.60;;;;;;;-143.84;78.42;45117.63;5091259;28;20442;-55
2023/08/09 00:43:22;;;;;;;1.80;1.70;;;;;;;-143.84;77.74;45087.16;5091293;28;20440;-55
2023/08/09 00:45:50;;;;;;;2.27;2.03;;;;;;;-143.84;77.43;45092.88;5091646;28;20496;-55
2023/08/09 00:48:18;;;;;;;1.73;1.63;;;;;;;-143.84;77.96;45102.38;5091455;28;20439;-55
2023/08/09 00:50:45;;;;;;;8.10;1.80;;;;;;;-143.84;78.27;45134.75;5091326;28;20442;-56
2023/08/09 00:53:14;;;;;;;2.33;1.80;;;;;;;-143.84;78.63;45123.34;5090979;28;20479;-55
2023/08/09 00:55:41;;;;;;;1.77;1.67;;;;;;;-143.84;78.69;45104.28;5090950;28;20507;-55
2023/08/09 00:58:08;;;;;;;4.20;1.70;;;;;;;-143.84;78.96;45085.25;5091057;28;20439;-55
2023/08/09 01:00:35;;;;;;;1.93;1.67;;;;;;;-143.84;79.16;45100.47;5091567;28;20431;-55
2023/08/09 01:03:03;;;;;;;1.80;1.70;;;;;;;-143.84;79.25;45102.38;5090742;28;20502;-55
2023/08/09 01:05:38;;;;;;;1.73;1.63;;;;;;;-143.84;78.88;45113.81;5091102;28;20442;-55
2023/08/09 01:08:13;;;;;;;1.87;1.67;;;;;;;-143.84;78.75;45100.47;5090927;28;20500;-55
2023/08/09 01:10:56;;;;;;;6.20;1.70;;;;;;;-143.84;78.88;45102.38;5090921;28;20466;-55
2023/08/09 01:13:24;;;;;;;1.40;1.20;;;;;;;-143.84;78.96;45108.09;5090774;28;20494;-55
2023/08/09 01:15:53;;;;;;;1.67;1.20;;;;;;;-143.84;78.84;45108.09;5091049;28;20492;-55
2023/08/09 01:18:22;;;;;;;2.67;1.40;;;;;;;-143.84;78.94;45087.16;5091205;28;20443;-55
2023/08/09 01:20:50;;;;;;;4.13;1.47;;;;;;;-143.84;78.93;45089.06;5090792;28;20436;-55
2023/08/09 01:23:20;;;;;;;1.63;1.53;;;;;;;-143.84;78.87;45111.91;5090559;28;20432;-55
2023/08/09 01:25:49;;;;;;;3.33;1.43;;;;;;;-143.84;79.08;45087.16;5090602;28;20444;-55
2023/08/09 01:28:17;;;;;;;1.73;1.50;;;;;;;-143.84;78.99;45106.19;5090535;28;20479;-55
2023/08/09 01:30:45;;;;;;;1.30;1.20;;;;;;;-143.84;79.02;45110.00;5089923;28;20450;-55
2023/08/09 01:33:14;;;;;;;2.93;1.73;;;;;;;-143.84;79.08;45098.56;5090616;28;20482;-55
2023/08/09 01:35:48;;;;;;;2.40;1.30;;;;;;;-143.84;79.45;45094.78;5090441;28;20444;-55
2023/08/09 01:38:21;;;;;;;1.93;1.73;;;;;;;-143.84;79.50;45087.16;5090351;28;20466;-54
2023/08/09 01:40:50;;;;;;;7.43;1.97;;;;;;;-143.84;79.02;45102.38;5090312;28;20936;-55
2023/08/09 01:43:18;;;;;;;1.50;1.40;;;;;;;-143.84;78.91;45113.81;5090301;28;20444;-55
2023/08/09 01:45:45;;;;;;;2.53;1.77;;;;;;;-143.84;79.33;45129.03;5090511;28;20477;-54
2023/08/09 01:48:12;;;;;;;1.60;1.40;;;;;;;-143.84;79.56;45102.38;5090149;28;20447;-55
2023/08/09 01:50:40;;;;;;;2.63;1.13;;;;;;;-143.84;79.46;45117.63;5090135;28;20505;-55
2023/08/09 01:53:07;;;;;;;2.00;1.80;;;;;;;-143.84;78.95;45102.38;5090012;28;21022;-55
2023/08/09 01:55:35;;;;;;;1.13;1.03;;;;;;;-143.84;78.63;45094.78;5090071;28;20458;-55
2023/08/09 01:58:04;;;;;;;2.17;1.57;;;;;;;-143.84;77.77;45113.81;5090035;28;20428;-55
2023/08/09 02:00:32;;;;;;;1.03;0.93;;;;;;;-143.84;76.89;45081.44;5089718;28;20454;-55
2023/08/09 02:02:59;;;;;;;1.50;1.20;;;;;;;-143.84;76.83;45119.53;5089537;28;20538;-55
2023/08/09 02:05:26;;;;;;;1.53;1.13;;;;;;;-143.84;76.35;45087.16;5084874;28;20448;-56
2023/08/09 02:07:53;;;;;;;2.80;1.20;;;;;;;-143.84;76.27;45108.09;5069462;28;20452;-55
2023/08/09 02:10:20;;;;;;;2.60;1.50;;;;;;;-143.84;75.66;45100.47;5069323;28;20934;-55
2023/08/09 02:12:49;;;;;;;1.07;0.97;;;;;;;-143.84;75.36;45102.38;5069436;28;20456;-55
2023/08/09 02:15:19;;;;;;;1.40;1.00;;;;;;;-143.84;74.81;45085.25;5069649;28;20501;-55
2023/08/09 02:17:46;;;;;;;1.00;0.90;;;;;;;-143.84;74.23;45113.81;5069446;28;20456;-55
2023/08/09 02:20:13;;;;;;;1.40;1.20;;;;;;;-143.84;73.90;45104.28;5069452;28;20896;-55
2023/08/09 02:22:41;;;;;;;1.20;1.10;;;;;;;-143.84;73.62;45110.00;5069310;28;20937;-55
2023/08/09 02:25:10;;;;;;;2.17;1.97;;;;;;;-143.84;73.22;45117.63;5069419;28;20437;-55
2023/08/09 02:27:39;;;;;;;0.90;0.73;;;;;;;-143.84;73.08;45092.88;5069434;28;20440;-55
2023/08/09 02:30:08;;;;;;;1.30;1.20;;;;;;;-143.84;72.65;45102.38;5069319;28;20445;-55
2023/08/09 02:32:37;;;;;;;1.20;1.00;;;;;;;-143.84;72.39;45110.00;5069401;28;20440;-55
2023/08/09 02:35:06;;;;;;;4.50;0.90;;;;;;;-143.84;72.32;45102.38;5069126;28;20485;-55
2023/08/09 02:37:34;;;;;;;1.00;0.80;;;;;;;-143.84;72.50;45100.47;5069030;28;20440;-55
2023/08/09 02:40:01;;;;;;;1.20;1.07;;;;;;;-143.84;72.37;45111.91;5068933;28;20437;-55
2023/08/09 02:42:28;;;;;;;1.20;1.07;;;;;;;-143.84;72.61;45129.03;5068351;28;20926;-55
2023/08/09 02:44:55;;;;;;;1.27;0.90;;;;;;;-143.84;72.48;45100.47;5069087;28;20448;-55
2023/08/09 02:47:23;;;;;;;1.10;0.90;;;;;;;-143.84;72.57;45094.78;5068955;28;20481;-55
2023/08/09 02:49:52;;;;;;;1.30;1.03;;;;;;;-143.84;72.71;45092.88;5069210;28;20860;-55
2023/08/09 02:52:19;;;;;;;1.33;1.20;;;;;;;-143.84;72.62;45108.09;5068816;28;20879;-55
2023/08/09 02:54:47;;;;;;;1.30;0.87;;;;;;;-143.84;72.64;45100.47;5068868;28;20544;-55
2023/08/09 02:57:14;;;;;;;4.03;0.90;;;;;;;-143.84;72.29;45106.19;5068428;28;20441;-55
2023/08/09 02:59:42;;;;;;;1.33;1.23;;;;;;;-143.84;72.58;45087.16;5068606;28;20510;-56
2023/08/09 03:02:09;;;;;;;2.07;1.07;;;;;;;-143.84;72.47;45096.66;5072643;28;20432;-56
2023/08/09 03:04:36;;;;;;;1.00;0.90;;;;;;;-143.84;72.77;45094.78;5089200;28;21098;-55
2023/08/09 03:07:04;;;;;;;1.50;1.10;;;;;;;-143.84;72.63;45070.00;5089872;28;20431;-49
2023/08/09 03:09:32;;;;;;;1.00;0.90;;;;;;;-143.84;72.67;45090.97;5089552;28;20447;-50
2023/08/09 03:11:59;;;;;;;1.30;1.10;;;;;;;-143.84;72.59;45134.75;5089551;28;20454;-50
2023/08/09 03:14:26;;;;;;;1.43;1.10;;;;;;;-143.84;72.62;45100.47;5089396;28;20491;-50
2023/08/09 03:16:53;;;;;;;1.93;1.30;;;;;;;-143.84;72.62;45111.91;5089453;28;20447;-51
2023/08/09 03:19:20;;;;;;;1.10;1.00;;;;;;;-143.84;72.58;45100.47;5089574;28;20512;-50
2023/08/09 03:21:47;;;;;;;1.17;1.07;;;;;;;-143.84;72.62;45096.66;5089679;28;20527;-49
2023/08/09 03:24:16;;;;;;;1.77;0.97;;;;;;;-143.84;72.70;45106.19;5089397;28;20435;-51
2023/08/09 03:26:43;;;;;;;1.30;1.20;;;;;;;-143.84;72.97;45108.09;5089375;28;20462;-50
2023/08/09 03:29:10;;;;;;;1.27;1.17;;;;;;;-143.84;72.65;45096.66;5089453;28;20436;-50
2023/08/09 03:31:37;;;;;;;1.30;1.20;;;;;;;-143.84;73.06;45110.00;5089450;28;20442;-50
2023/08/09 03:34:05;;;;;;;0.90;0.80;;;;;;;-143.84;72.99;45098.56;5089024;28;20562;-49
2023/08/09 03:36:32;;;;;;;1.50;1.37;;;;;;;-143.84;72.96;45094.78;5089263;28;20444;-49
2023/08/09 03:38:59;;;;;;;5.93;1.47;;;;;;;-143.84;73.03;45096.66;5089408;28;20443;-50
2023/08/09 03:41:28;;;;;;;1.37;1.27;;;;;;;-143.84;72.43;45083.34;5089306;28;21022;-49
2023/08/09 03:43:55;;;;;;;1.30;1.10;;;;;;;-143.84;71.34;45077.63;5089268;28;20466;-51
2023/08/09 03:46:22;;;;;;;1.63;1.10;;;;;;;-143.84;68.46;45110.00;5089267;28;21129;-50
2023/08/09 03:48:49;;;;;;;1.33;1.23;;;;;;;-143.84;63.94;45071.91;5089202;28;20562;-50
2023/08/09 03:51:17;;;;;;;1.10;1.00;;;;;;;-143.84;59.30;45056.69;5089551;28;20848;-50
2023/08/09 03:53:44;;;;;;;1.10;0.93;;;;;;;-143.84;54.49;45089.06;5092244;28;20480;-50
2023/08/09 03:56:12;;;;;;;4.00;1.03;;;;;;;-143.84;50.09;45052.88;5092233;28;20436;-51
2023/08/09 03:58:40;;;;;;;3.57;1.10;;;;;;;-143.84;47.09;45016.69;5091450;28;20438;-50
2023/08/09 04:01:08;;;;;;;1.10;1.00;;;;;;;-143.84;45.44;45030.03;5091794;28;20933;-52
2023/08/09 04:03:35;;;;;;;2.13;1.13;;;;;;;-143.84;43.77;45014.78;5091555;28;20487;-51
2023/08/09 04:06:02;;;;;;;1.77;1.10;;;;;;;-143.84;42.67;45020.50;5091962;28;20440;-51
2023/08/09 04:08:31;;;;;;;3.20;1.00;;;;;;;-143.84;41.55;45010.97;5090825;28;20447;-52
2023/08/09 04:10:59;;;;;;;1.53;0.80;;;;;;;-143.84;40.90;45012.88;5088904;28;20439;-50
2023/08/09 04:13:26;;;;;;;1.17;1.07;;;;;;;-143.84;40.61;45001.47;5091841;28;20923;-50
2023/08/09 04:15:56;;;;;;;1.07;0.90;;;;;;;-143.84;40.46;44995.75;5091685;28;20436;-50
2023/08/09 04:18:23;;;;;;;1.20;1.00;;;;;;;-143.84;40.20;45026.22;5091470;28;20489;-52
2023/08/09 04:20:50;;;;;;;1.30;0.80;;;;;;;-143.84;40.46;44993.84;5091576;28;20439;-51
2023/08/09 04:23:19;;;;;;;1.77;1.10;;;;;;;-143.84;40.94;44995.75;5092272;28;20882;-51
2023/08/09 04:25:46;;;;;;;1.30;0.93;;;;;;;-143.84;40.48;44999.56;5092538;28;20499;-51
2023/08/09 04:28:13;;;;;;;1.67;0.90;;;;;;;-143.84;40.68;44997.66;5092112;28;21020;-52
2023/08/09 04:30:40;;;;;;;1.10;0.90;;;;;;;-143.84;40.67;44999.56;5091847;28;20953;-51
2023/08/09 04:33:09;;;;;;;1.80;1.03;;;;;;;-143.84;40.52;45009.09;5092112;28;20456;-52
2023/08/09 04:35:37;;;;;;;3.83;0.80;;;;;;;-143.84;40.37;44967.19;5092016;28;20475;-51
2023/08/09 04:38:04;;;;;;;6.83;0.80;;;;;;;-143.84;40.08;44991.94;5088854;28;20456;-51
2023/08/09 04:40:31;;;;;;;0.97;0.60;;;;;;;-143.84;39.81;44991.94;5091867;28;20489;-51
2023/08/09 04:42:59;;;;;;;2.77;0.70;;;;;;;-143.84;39.34;44988.13;5091714;28;20452;-51
2023/08/09 04:45:26;;;;;;;3.30;0.83;;;;;;;-143.84;39.13;44986.22;5091797;28;20918;-51
2023/08/09 04:47:53;;;;;;;1.30;0.70;;;;;;;-143.84;39.15;44955.75;5091346;28;20493;-51
2023/08/09 04:50:22;;;;;;;1.20;0.80;;;;;;;-143.84;38.58;44991.94;5091514;28;20448;-51
2023/08/09 04:52:49;;;;;;;1.30;0.80;;;;;;;-143.84;38.77;44999.56;5091709;28;20553;-51
2023/08/09 04:55:16;;;;;;;5.03;0.80;;;;;;;-143.84;38.69;44974.81;5092071;28;21161;-50
2023/08/09 04:57:44;;;;;;;2.73;0.90;;;;;;;-143.84;38.73;44946.25;5091687;28;20439;-50
2023/08/09 05:00:12;;;;;;;1.07;0.90;;;;;;;-143.84;38.35;44980.53;5091296;28;20497;-50
2023/08/09 05:02:39;;;;;;;3.77;0.80;;;;;;;-143.84;37.82;44991.94;5091047;28;20843;-50
2023/08/09 05:05:07;;;;;;;1.00;0.70;;;;;;;-143.84;37.42;44988.13;5090678;28;20882;-50
2023/08/09 05:07:37;;;;;;;4.60;0.87;;;;;;;-143.84;37.58;44980.53;5091481;28;20436;-49
2023/08/09 05:10:06;;;;;;;1.00;0.70;;;;;;;-143.84;37.36;44955.75;5091090;28;20443;-51
2023/08/09 05:12:34;;;;;;;1.23;0.90;;;;;;;-143.84;37.43;44969.09;5091269;28;20436;-51
2023/08/09 05:15:01;;;;;;;1.30;1.20;;;;;;;-143.84;37.24;44980.53;5091572;28;20475;-50
2023/08/09 05:17:28;;;;;;;0.90;0.60;;;;;;;-143.84;37.25;44951.97;5091069;28;21270;-50
2023/08/09 05:19:55;;;;;;;2.93;0.90;;;;;;;-143.84;37.26;44957.66;5091118;28;20446;-50
2023/08/09 05:22:22;;;;;;;1.70;1.00;;;;;;;-143.84;36.72;44953.88;5090208;28;20443;-50
2023/08/09 05:24:51;;;;;;;1.10;0.80;;;;;;;-143.84;36.70;44953.88;5089865;28;20451;-50
2023/08/09 05:27:18;;;;;;;3.77;0.70;;;;;;;-143.84;36.53;44971.00;5089858;28;20980;-50
2023/08/09 05:29:45;;;;;;;3.30;1.00;;;;;;;-143.84;36.51;44965.28;5090639;28;20813;-49
2023/08/09 05:32:12;;;;;;;1.00;0.73;;;;;;;-143.84;35.90;44971.00;5090682;28;20443;-50
2023/08/09 05:34:39;;;;;;;3.83;0.80;;;;;;;-143.84;35.86;44957.66;5090712;28;20484;-50
2023/08/09 05:37:06;;;;;;;1.30;0.73;;;;;;;-143.84;35.20;44934.81;5090840;28;20516;-51
2023/08/09 05:39:33;;;;;;;1.10;0.83;;;;;;;-143.84;35.27;44950.06;5090370;28;20435;-50
2023/08/09 05:42:03;;;;;;;2.90;1.47;;;;;;;-143.84;35.24;44950.06;5090809;28;20432;-50
2023/08/09 05:44:30;;;;;;;3.00;1.10;;;;;;;-143.84;35.12;44965.28;5090459;28;20440;-50
2023/08/09 05:46:57;;;;;;;1.20;1.10;;;;;;;-143.84;35.19;44942.44;5090419;28;20440;-50
2023/08/09 05:49:24;;;;;;;2.50;0.90;;;;;;;-143.84;35.61;44965.28;5090744;28;20511;-49
2023/08/09 05:51:52;;;;;;;3.57;1.00;;;;;;;-143.84;35.36;44944.34;5090777;28;20428;-50
2023/08/09 05:54:19;;;;;;;6.70;1.13;;;;;;;-143.84;35.59;44957.66;5090323;28;20484;-50
2023/08/09 05:56:46;;;;;;;1.83;1.10;;;;;;;-143.84;36.11;44951.97;5090306;28;20432;-50
2023/08/09 05:59:15;;;;;;;1.00;0.80;;;;;;;-143.84;35.94;44965.28;5089950;28;20517;-50
2023/08/09 06:01:42;;;;;;;4.40;1.50;;;;;;;-143.84;36.33;44957.66;5090111;28;20858;-50
2023/08/09 06:04:09;;;;;;;2.40;0.80;;;;;;;-143.84;36.60;44961.47;5089765;28;20483;-49
2023/08/09 06:06:36;;;;;;;1.70;1.13;;;;;;;-143.84;36.13;44931.00;5090434;28;20436;-50
2023/08/09 06:09:05;;;;;;;2.20;1.30;;;;;;;-143.84;35.71;44938.63;5089751;28;20938;-51
2023/08/09 06:11:33;;;;;;;1.93;1.00;;;;;;;-143.84;35.64;44932.91;5089403;28;20450;-49
2023/08/09 06:14:00;;;;;;;1.60;1.20;;;;;;;-143.84;36.36;44959.56;5088878;28;20462;-50
2023/08/09 06:16:29;;;;;;;2.50;1.00;;;;;;;-143.84;36.17;44942.44;5089013;28;20518;-50
2023/08/09 06:18:56;;;;;;;2.60;0.93;;;;;;;-143.84;35.46;44953.88;5089247;28;20444;-49
2023/08/09 06:21:23;;;;;;;6.20;1.00;;;;;;;-143.84;35.08;44953.88;5088659;28;20444;-50
2023/08/09 06:23:50;;;;;;;1.17;1.07;;;;;;;-143.84;35.12;44953.88;5088816;28;20452;-50
2023/08/09 06:26:18;;;;;;;0.97;0.70;;;;;;;-143.84;35.36;44940.53;5088659;28;20961;-50
2023/08/09 06:28:45;;;;;;;1.30;1.10;;;;;;;-143.84;35.08;44948.16;5088680;28;20470;-50
2023/08/09 06:31:12;;;;;;;2.93;0.90;;;;;;;-143.84;35.05;44934.81;5089815;28;20864;-50
2023/08/09 06:33:42;;;;;;;1.37;0.97;;;;;;;-143.84;34.02;44921.50;5089637;28;20443;-50
2023/08/09 06:36:10;;;;;;;3.13;1.07;;;;;;;-143.84;34.47;44927.19;5089530;28;20541;-51
2023/08/09 06:38:37;;;;;;;1.50;1.10;;;;;;;-143.84;33.71;44915.78;5088947;28;20937;-50
2023/08/09 06:41:04;;;;;;;1.67;1.00;;;;;;;-143.84;33.48;44906.25;5089043;28;20431;-51
2023/08/09 06:43:31;;;;;;;1.00;0.90;;;;;;;-143.84;33.23;44913.88;5088855;28;20435;-50
2023/08/09 06:45:59;;;;;;;2.20;1.13;;;;;;;-143.84;33.34;44925.31;5088797;28;20496;-50
2023/08/09 06:48:29;;;;;;;3.83;0.93;;;;;;;-143.84;32.71;44921.50;5088715;28;20438;-49
2023/08/09 06:50:58;;;;;;;2.53;1.17;;;;;;;-143.84;33.49;44934.81;5088855;28;20854;-50
2023/08/09 06:53:26;;;;;;;1.73;0.90;;;;;;;-143.84;33.36;44911.97;5088756;28;20440;-50
2023/08/09 06:55:53;;;;;;;3.93;1.13;;;;;;;-143.84;33.53;44910.06;5088959;28;20484;-50
2023/08/09 06:58:20;;;;;;;11.50;0.97;;;;;;;-143.84;32.60;44913.88;5089327;28;20465;-55
2023/08/09 07:00:48;;;;;;;2.70;1.10;;;;;;;-143.84;33.97;44891.03;5089518;28;20508;-55
2023/08/09 07:03:15;;;;;;;6.63;1.07;;;;;;;-143.84;32.46;44906.25;5088936;28;20487;-56
2023/08/09 07:05:45;;;;;;;1.50;0.80;;;;;;;-143.84;31.92;44915.78;5089307;28;20867;-56
2023/08/09 07:08:14;;;;;;;4.30;1.30;;;;;;;-143.84;32.55;44908.16;5089236;28;20497;-56
2023/08/09 07:10:41;;;;;;;1.60;0.83;;;;;;;-143.84;32.57;44904.34;5089156;28;20866;-56
2023/08/09 07:13:08;;;;;;;0.90;0.70;;;;;;;-143.84;32.28;44898.66;5089014;28;20525;-55
2023/08/09 07:15:35;;;;;;;3.57;1.13;;;;;;;-143.84;32.06;44919.59;5089297;28;20479;-56
2023/08/09 07:18:02;;;;;;;4.43;1.00;;;;;;;-143.84;32.40;44902.44;5089209;28;20435;-56
2023/08/09 07:20:29;;;;;;;4.30;1.10;;;;;;;-143.84;32.44;44892.94;5089049;28;20503;-56
2023/08/09 07:22:56;;;;;;;3.47;0.80;;;;;;;-143.84;31.96;44885.31;5088991;28;20953;-55
2023/08/09 07:25:25;;;;;;;1.80;0.90;;;;;;;-143.84;31.86;44900.53;5089220;28;20477;-55
2023/08/09 07:27:52;;;;;;;1.40;0.80;;;;;;;-143.84;32.27;44902.44;5090627;28;20953;-56
2023/08/09 07:30:21;;;;;;;1.00;0.80;;;;;;;-143.84;32.32;44915.78;5093046;28;20871;-56
2023/08/09 07:32:48;;;;;;;1.50;1.33;;;;;;;-143.84;32.03;44906.25;5093145;28;21083;-56
2023/08/09 07:35:17;;;;;;;3.23;1.00;;;;;;;-143.84;32.15;44946.25;5092897;28;20494;-56
2023/08/09 07:37:46;;;;;;;1.00;0.60;;;;;;;-143.84;31.89;44900.53;5092973;28;20475;-56
2023/08/09 07:40:13;;;;;;;1.83;0.83;;;;;;;-143.84;31.58;44894.84;5092649;28;20850;-56
2023/08/09 07:42:43;;;;;;;1.20;0.87;;;;;;;-143.84;31.99;44881.50;5092966;28;20432;-55
2023/08/09 07:45:11;;;;;;;2.90;1.00;;;;;;;-143.84;32.21;44894.84;5092778;28;20459;-56
2023/08/09 07:47:38;;;;;;;2.40;0.90;;;;;;;-143.84;32.29;44900.53;5093048;28;20522;-56
2023/08/09 07:50:06;;;;;;;2.80;0.90;;;;;;;-143.84;32.45;44875.78;5091927;28;20440;-55
2023/08/09 07:52:33;;;;;;;2.30;1.17;;;;;;;-143.84;32.43;44896.75;5092140;28;21028;-55
2023/08/09 07:55:00;;;;;;;6.10;1.03;;;;;;;-143.84;32.73;44891.03;5092002;28;20479;-56
2023/08/09 07:57:27;;;;;;;1.57;0.83;;;;;;;-143.84;32.14;44915.78;5092246;28;20450;-56
2023/08/09 07:59:56;;;;;;;1.40;0.80;;;;;;;-143.84;32.32;44881.50;5092265;28;20458;-55
2023/08/09 08:02:23;;;;;;;1.10;0.80;;;;;;;-143.84;33.30;44898.66;5091991;28;20816;-56
2023/08/09 08:04:50;;;;;;;2.93;0.83;;;;;;;-143.84;33.46;44923.41;5092233;28;20451;-56
2023/08/09 08:07:17;;;;;;;3.90;0.87;;;;;;;-143.84;32.71;44904.34;5092366;28;20432;-56
2023/08/09 08:09:45;;;;;;;1.60;0.67;;;;;;;-143.84;32.49;44917.69;5091829;28;20501;-56
2023/08/09 08:12:13;;;;;;;1.63;0.73;;;;;;;-143.84;31.95;44881.50;5092032;28;20930;-56
2023/08/09 08:14:40;;;;;;;1.93;0.93;;;;;;;-143.84;32.46;44871.97;5091886;28;20463;-56
2023/08/09 08:17:08;;;;;;;12.40;1.30;;;;;;;-143.84;32.46;44881.50;5091935;28;20505;-56
2023/08/09 08:19:36;;;;;;;1.63;0.90;;;;;;;-143.84;32.43;44913.88;5091892;28;20505;-56
2023/08/09 08:22:05;;;;;;;1.93;0.90;;;;;;;-143.84;32.13;44908.16;5091867;28;20478;-56
2023/08/09 08:24:33;;;;;;;1.93;0.93;;;;;;;-143.84;32.30;44908.16;5091817;28;20527;-56
2023/08/09 08:27:00;;;;;;;2.47;0.87;;;;;;;-143.84;32.60;44892.94;5091728;28;20442;-56
2023/08/09 08:29:27;;;;;;;2.17;1.17;;;;;;;-143.84;32.83;44910.06;5091775;28;20440;-56
2023/08/09 08:31:55;;;;;;;4.00;0.83;;;;;;;-143.84;32.76;44917.69;5090721;28;20440;-55
2023/08/09 08:34:23;;;;;;;2.93;0.87;;;;;;;-143.84;33.33;44875.78;5090652;28;20927;-55
2023/08/09 08:36:51;;;;;;;1.93;0.80;;;;;;;-143.84;32.70;44887.22;5091182;28;20483;-56
2023/08/09 08:39:19;;;;;;;2.47;1.13;;;;;;;-143.84;32.49;44871.97;5089440;28;20825;-56
2023/08/09 08:41:49;;;;;;;1.20;0.83;;;;;;;-143.84;32.23;44877.69;5091228;28;20493;-56
2023/08/09 08:44:16;;;;;;;3.87;0.80;;;;;;;-143.84;32.88;44932.91;5090912;28;20478;-56
2023/08/09 08:46:43;;;;;;;3.33;1.13;;;;;;;-143.84;32.94;44892.94;5091507;28;20440;-56
2023/08/09 08:49:13;;;;;;;3.80;1.17;;;;;;;-143.84;32.96;44929.09;5091445;28;20950;-55
2023/08/09 08:51:44;;;;;;;3.13;1.40;;;;;;;-143.84;33.39;44911.97;5091394;28;20525;-56
2023/08/09 08:54:12;;;;;;;5.80;0.93;;;;;;;-143.84;33.00;44938.63;5091336;28;20870;-56
2023/08/09 08:56:40;;;;;;;2.80;0.80;;;;;;;-143.84;33.17;44921.50;5091177;28;20483;-56
2023/08/09 08:59:07;;;;;;;2.70;0.90;;;;;;;-143.84;32.37;44925.31;5090966;28;20513;-56
2023/08/09 09:01:34;;;;;;;1.30;0.80;;;;;;;-143.84;32.77;44906.25;5091482;28;20455;-56
2023/08/09 09:04:02;;;;;;;2.17;0.90;;;;;;;-143.84;32.74;44906.25;5090701;28;20858;-56
2023/08/09 09:06:29;;;;;;;1.13;0.77;;;;;;;-143.84;32.95;44915.78;5090924;28;20452;-56
2023/08/09 09:08:59;;;;;;;1.00;0.70;;;;;;;-143.84;32.58;44906.25;5091078;28;20436;-56
2023/08/09 09:11:26;;;;;;;1.50;1.10;;;;;;;-143.84;33.19;44900.53;5090996;28;20444;-56
2023/08/09 09:13:54;;;;;;;2.50;0.90;;;;;;;-143.84;32.63;44911.97;5091145;28;20447;-56
2023/08/09 09:16:22;;;;;;;1.00;0.77;;;;;;;-143.84;32.91;44892.94;5090648;28;20479;-56
2023/08/09 09:18:49;;;;;;;14.13;1.23;;;;;;;-143.84;33.08;44919.59;5090894;28;20443;-56
2023/08/09 09:21:18;;;;;;;2.27;0.90;;;;;;;-143.84;33.11;44896.75;5090817;28;20448;-56
2023/08/09 09:23:46;;;;;;;4.07;1.03;;;;;;;-143.84;33.05;44904.34;5090509;28;20431;-56
2023/08/09 09:26:16;;;;;;;5.70;1.07;;;;;;;-143.84;33.08;44904.34;5090707;28;20431;-55
2023/08/09 09:28:45;;;;;;;1.10;0.93;;;;;;;-143.84;32.38;44900.53;5090871;28;20482;-55
2023/08/09 09:31:14;;;;;;;1.77;0.67;;;;;;;-143.84;32.88;44892.94;5090614;28;20523;-56
2023/08/09 09:33:45;;;;;;;1.10;1.00;;;;;;;-143.84;32.34;44911.97;5090573;28;20440;-55
2023/08/09 09:36:13;;;;;;;1.13;1.03;;;;;;;-143.84;32.92;44932.91;5090511;28;20487;-50
2023/08/09 09:38:41;;;;;;;3.70;0.93;;;;;;;-143.84;33.06;44915.78;5090797;28;20848;-50
2023/08/09 09:41:09;;;;;;;1.10;0.90;;;;;;;-143.84;33.30;44919.59;5090571;28;20493;-50
2023/08/09 09:43:42;;;;;;;3.53;0.80;;;;;;;-143.84;33.82;44921.50;5090745;28;20451;-50
2023/08/09 09:46:27;;;;;;;3.13;0.90;;;;;;;-143.84;34.41;44898.66;5090698;28;20534;-50
2023/08/09 09:49:00;;;;;;;2.00;0.90;;;;;;;-143.84;34.64;44921.50;5090379;28;20448;-50
2023/08/09 09:51:28;;;;;;;2.60;1.00;;;;;;;-143.84;35.96;44904.34;5090279;28;20435;-50
2023/08/09 09:53:56;;;;;;;5.97;1.27;;;;;;;-143.84;35.80;44919.59;5090811;28;20435;-50
2023/08/09 09:56:23;;;;;;;5.50;0.80;;;;;;;-143.84;35.52;44927.19;5090424;28;20479;-50
2023/08/09 09:58:52;;;;;;;6.53;1.10;;;;;;;-143.84;36.31;44910.06;5090360;28;20444;-50
2023/08/09 10:01:22;;;;;;;3.30;1.10;;;;;;;-143.84;35.89;44904.34;5090490;28;20444;-49
2023/08/09 10:03:50;;;;;;;5.03;1.13;;;;;;;-143.84;36.07;44921.50;5090117;28;20483;-50
2023/08/09 10:06:23;;;;;;;1.83;0.97;;;;;;;-143.84;36.95;44927.19;5090190;28;20450;-50
2023/08/09 10:08:53;;;;;;;3.20;1.40;;;;;;;-143.84;36.44;44917.69;5090443;28;20493;-50
2023/08/09 10:11:23;;;;;;;2.40;0.90;;;;;;;-143.84;36.51;44934.81;5090555;28;20428;-50
2023/08/09 10:13:54;;;;;;;2.70;0.93;;;;;;;-143.84;36.69;44911.97;5090158;28;21114;-50
2023/08/09 10:16:23;;;;;;;1.63;1.07;;;;;;;-143.84;37.24;44927.19;5089444;28;20992;-50
2023/08/09 10:18:57;;;;;;;2.33;1.10;;;;;;;-143.84;37.83;44944.34;5089585;28;20467;-50
2023/08/09 10:21:25;;;;;;;1.50;1.20;;;;;;;-143.84;36.01;44908.16;5089747;28;20440;-51
2023/08/09 10:23:57;;;;;;;2.33;1.40;;;;;;;-143.84;37.04;44913.88;5089957;28;20948;-51
2023/08/09 10:26:29;;;;;;;1.67;1.13;;;;;;;-143.84;36.99;44923.41;5090175;28;20530;-50
2023/08/09 10:29:06;;;;;;;1.33;1.20;;;;;;;-143.84;37.61;44917.69;5090101;28;20447;-50
2023/08/09 10:31:48;;;;;;;1.60;0.90;;;;;;;-143.84;37.14;44925.31;5090085;28;20967;-50
2023/08/09 10:34:15;;;;;;;1.33;0.90;;;;;;;-143.84;37.30;44925.31;5089910;28;20439;-50
2023/08/09 10:36:43;;;;;;;1.87;1.10;;;;;;;-143.84;38.80;44934.81;5089760;28;20578;-50
2023/08/09 10:39:13;;;;;;;1.90;1.10;;;;;;;-143.84;36.82;44951.97;5089876;28;21121;-50
2023/08/09 10:41:54;;;;;;;1.10;0.80;;;;;;;-143.84;37.21;44971.00;5089829;28;20983;-50
2023/08/09 10:44:33;;;;;;;2.53;0.90;;;;;;;-143.84;36.43;44974.81;5089778;28;20438;-49
2023/08/09 10:47:06;;;;;;;6.57;0.90;;;;;;;-143.84;37.75;44938.63;5089884;28;21116;-50
2023/08/09 10:50:08;;;;;;;5.53;0.90;;;;;;;-143.84;38.05;44961.47;5090126;28;21067;-49
2023/08/09 10:52:37;;;;;;;2.83;1.20;;;;;;;-143.84;37.70;44938.63;5087480;28;20455;-51
2023/08/09 10:55:28;;;;;;;3.63;0.80;;;;;;;-143.84;37.74;44931.00;5089630;28;20440;-50
2023/08/09 10:57:58;;;;;;;1.73;1.17;;;;;;;-143.84;37.75;44957.66;5090023;28;20514;-50
2023/08/09 11:00:28;;;;;;;12.83;1.10;;;;;;;-143.84;37.58;44942.44;5089436;28;20926;-50
2023/08/09 11:02:57;;;;;;;3.03;1.20;;;;;;;-143.84;37.10;44957.66;5091082;28;20612;-50
2023/08/09 11:05:25;;;;;;;3.73;1.23;;;;;;;-143.84;38.35;44976.72;5093533;28;20443;-50
2023/08/09 11:07:54;;;;;;;13.03;1.10;;;;;;;-143.84;37.58;44934.81;5093338;28;20981;-52
2023/08/09 11:10:32;;;;;;;4.50;1.57;;;;;;;-143.84;39.32;44961.47;5093110;28;20443;-52
2023/08/09 11:13:04;;;;;;;2.90;0.90;;;;;;;-143.84;37.99;44950.06;5093386;28;20548;-52
2023/08/09 11:15:33;;;;;;;4.47;1.23;;;;;;;-143.84;38.41;44950.06;5092705;28;20479;-52
2023/08/09 11:18:00;;;;;;;3.67;0.90;;;;;;;-143.84;38.89;44948.16;5092703;28;20475;-52
2023/08/09 11:20:27;;;;;;;2.80;1.20;;;;;;;-143.84;38.58;44953.88;5092615;28;20489;-52
2023/08/09 11:22:56;;;;;;;6.80;1.60;;;;;;;-143.84;38.72;44950.06;5092567;28;20834;-52